Freetown Corners, New York
Current Conditions -  °F | °C
As of 1:15 PM on Monday 26 Jan 2015 (Local Time) from KN03 Reporting Station
Moderate Snow Moderate Snow  
Wind Chill:   Ceiling: 700
Heat Index: 18°   Visibility: 0.5mi
Dew Point: 14°   Wind: 6mph
Humidity: 86%   Direction: 70°ENE
Pressure: 29.87"   Gusts: NA
Location:  42.4596°N, 76.0658°W
Report Text: KN03 261815Z AUTO 07005KT 1/2SM SN OVC007 M08/M10 A2987 RMK AO2
Loading
Personal Weather Stations






























Interactive Weather Map New forecast layout! Learn more

10-Day Weather Forecast

Advertisements
Track Severe Weather on mobile